Pagrindinis puslapis
METAR-TAF:

METAR-TAF

Oro uostai :

Viterbo oro uostas

Viterbas, Italija

platuma: 42-26N, ilguma: 012-03E, Aukštis: 300 m

Dabartinis oras

Ataskaita buvo paskelbta 8 valandos ir 56 minutes, ne 17:55 UTC
Vėjas 4 kt iš Vakarų/Pietvakarių
Temperatūra 7°C
Drėgmė 87%
Slėgis 1026 hPa
Matomumas 10 km arba daugiau
Išsisklaidę debesys ne aukštis 3000 ft

METAR: LIRV 171755Z 25004KT 9999 SCT030 07/05 Q1026 RMK BKN BKN060 MON E SE LIB NC VIS MIN 9999 WIND THR04 /////KT BLU

Laikas: 03:51 (02:51 UTC)

Prognozė

Ataskaita buvo paskelbta 12 valandos ir 51 minutes, ne 14:00 UTC
Prognozė galioja nuo 17 metu 15 UTC su 17 metu 24 UTC
Vėjas 5 kt nuo kintamojo kryptimis
Matomumas 10 km arba daugiau
Mažai debesys ne aukštis 5000 ft
Tapsmas
nuo 17 metu 20 UTC su 17 metu 22 UTC
Matomumas: 5000 m
Išsisklaidę debesys ne aukštis 500 ft
rūkana

TAF: LIRV 171400Z 1715/1724 VRB05KT 9999 FEW050 BECMG 1720/1722 5000 BR SCT005

Orai ataskaitas ir orų prognozės (METAR, TAF).

turimą stotys yra geltonos ir raudonos taškus žemėlapyje.

Perkelti pele per norėdami pamatyti stoties vardą.

Tada spustelėkite, norėdami matyti oro stebėjimo ir prognozės.

Norėdami pakeisti žemėlapį: spustelėkite ant žalios mygtukų su juodo kryžiaus žemyn,; žalią mygtuką su brūkšneliu, jei norite nutolinti; arba žalių rodyklių gretimoms žemėlapius.


METAR-TAF: